Centralia, Washington
Current Conditions -  °F | °C
As of 2:15 PM on Tuesday 25 Nov 2014 (Local Time) from KCLS Reporting Station
Overcast Overcast  
Wind Chill: 59°   Ceiling: 2300
Heat Index: 59°   Visibility: 10mi
Dew Point: 57°   Wind: 5mph
Humidity: 94%   Direction: 200°SSW
Pressure: 30.24"   Gusts: NA
Location:  46.73°N, 122.95°W
Report Text: KCLS 252215Z AUTO 20004KT 10SM OVC023 15/14 A3024 RMK AO2
Loading
Personal Weather Stations






























Interactive Weather Map New forecast layout! Learn more

10-Day Weather Forecast

Advertisements
Track Severe Weather on mobile